sensor_id;sensor_type;location;lat;lon;timestamp;pressure;altitude;pressure_sealevel;temperature;humidity
1616;BME280;801;47.982;7.810;2022-07-11T02:32:40;99201.53;;;15.64;100.00
1616;BME280;801;47.982;7.810;2022-07-11T02:35:08;99195.91;;;15.61;100.00
1616;BME280;801;47.982;7.810;2022-07-11T02:37:34;99203.44;;;15.74;100.00
1616;BME280;801;47.982;7.810;2022-07-11T02:40:01;99202.97;;;15.46;100.00
1616;BME280;801;47.982;7.810;2022-07-11T02:42:28;99197.31;;;15.43;100.00
1616;BME280;801;47.982;7.810;2022-07-11T02:44:54;99195.44;;;15.43;100.00
1616;BME280;801;47.982;7.810;2022-07-11T02:47:21;99192.22;;;15.36;100.00
1616;BME280;801;47.982;7.810;2022-07-11T02:49:49;99195.91;;;15.55;100.00
1616;BME280;801;47.982;7.810;2022-07-11T02:52:15;99190.78;;;15.54;100.00
1616;BME280;801;47.982;7.810;2022-07-11T02:54:41;99196.66;;;15.66;100.00
1616;BME280;801;47.982;7.810;2022-07-11T02:57:08;99199.09;;;15.68;100.00
1616;BME280;801;47.982;7.810;2022-07-11T02:59:34;99194.53;;;15.63;100.00
1616;BME280;801;47.982;7.810;2022-07-11T03:02:01;99200.53;;;15.50;100.00
1616;BME280;801;47.982;7.810;2022-07-11T03:04:30;99205.69;;;15.46;100.00
1616;BME280;801;47.982;7.810;2022-07-11T03:06:58;99196.47;;;15.52;100.00
1616;BME280;801;47.982;7.810;2022-07-11T03:09:25;99202.34;;;15.65;100.00
1616;BME280;801;47.982;7.810;2022-07-11T03:11:51;99203.44;;;15.64;100.00
1616;BME280;801;47.982;7.810;2022-07-11T03:14:18;99201.75;;;15.83;100.00
1616;BME280;801;47.982;7.810;2022-07-11T03:16:45;99204.69;;;15.92;100.00
1616;BME280;801;47.982;7.810;2022-07-11T03:19:11;99191.16;;;15.87;100.00
1616;BME280;801;47.982;7.810;2022-07-11T03:21:38;99193.19;;;16.05;100.00
1616;BME280;801;47.982;7.810;2022-07-11T03:24:06;99188.06;;;16.04;100.00
1616;BME280;801;47.982;7.810;2022-07-11T03:26:32;99191.28;;;16.11;100.00
1616;BME280;801;47.982;7.810;2022-07-11T03:28:59;99193.44;;;16.09;100.00
1616;BME280;801;47.982;7.810;2022-07-11T03:31:25;99190.47;;;16.10;100.00
1616;BME280;801;47.982;7.810;2022-07-11T03:33:52;99197.81;;;16.05;100.00
1616;BME280;801;47.982;7.810;2022-07-11T03:36:18;99191.84;;;16.08;100.00
1616;BME280;801;47.982;7.810;2022-07-11T03:38:45;99192.66;;;16.08;100.00
1616;BME280;801;47.982;7.810;2022-07-11T03:41:13;99189.72;;;16.00;100.00
1616;BME280;801;47.982;7.810;2022-07-11T03:43:40;99191.06;;;16.02;100.00
1616;BME280;801;47.982;7.810;2022-07-11T03:46:06;99188.38;;;15.97;100.00
1616;BME280;801;47.982;7.810;2022-07-11T03:48:33;99191.78;;;15.68;100.00
1616;BME280;801;47.982;7.810;2022-07-11T03:50:59;99184.75;;;15.72;100.00
1616;BME280;801;47.982;7.810;2022-07-11T03:53:26;99183.31;;;15.25;100.00
1616;BME280;801;47.982;7.810;2022-07-11T03:55:52;99183.56;;;15.24;100.00
1616;BME280;801;47.982;7.810;2022-07-11T03:58:20;99178.69;;;15.26;100.00
1616;BME280;801;47.982;7.810;2022-07-11T04:00:46;99180.88;;;15.13;100.00
1616;BME280;801;47.982;7.810;2022-07-11T04:03:13;99185.72;;;15.32;100.00
1616;BME280;801;47.982;7.810;2022-07-11T04:05:39;99183.78;;;15.38;100.00
1616;BME280;801;47.982;7.810;2022-07-11T04:08:06;99180.84;;;15.29;100.00
1616;BME280;801;47.982;7.810;2022-07-11T04:10:32;99181.97;;;15.18;100.00
1616;BME280;801;47.982;7.810;2022-07-11T04:12:59;99181.88;;;15.38;100.00
1616;BME280;801;47.982;7.810;2022-07-11T04:15:26;99184.81;;;15.47;100.00
1616;BME280;801;47.982;7.810;2022-07-11T04:17:53;99183.75;;;15.48;100.00
1616;BME280;801;47.982;7.810;2022-07-11T04:20:20;99181.59;;;15.50;100.00
1616;BME280;801;47.982;7.810;2022-07-11T04:22:46;99187.25;;;15.48;100.00
1616;BME280;801;47.982;7.810;2022-07-11T04:25:13;99193.78;;;15.47;100.00
1616;BME280;801;47.982;7.810;2022-07-11T04:27:39;99191.56;;;15.54;100.00
1616;BME280;801;47.982;7.810;2022-07-11T04:30:06;99191.53;;;15.60;100.00
1616;BME280;801;47.982;7.810;2022-07-11T04:32:35;99196.94;;;15.65;100.00
1616;BME280;801;47.982;7.810;2022-07-11T04:35:02;99196.94;;;15.70;100.00
1616;BME280;801;47.982;7.810;2022-07-11T04:37:28;99199.06;;;15.78;100.00
1616;BME280;801;47.982;7.810;2022-07-11T04:39:55;99206.34;;;15.83;100.00
1616;BME280;801;47.982;7.810;2022-07-11T04:42:21;99198.44;;;15.91;100.00
1616;BME280;801;47.982;7.810;2022-07-11T04:44:48;99197.59;;;15.96;100.00
1616;BME280;801;47.982;7.810;2022-07-11T04:47:14;99201.69;;;15.93;100.00
1616;BME280;801;47.982;7.810;2022-07-11T04:49:42;99196.53;;;15.97;100.00
1616;BME280;801;47.982;7.810;2022-07-11T04:52:11;99201.19;;;15.86;100.00
1616;BME280;801;47.982;7.810;2022-07-11T04:54:38;99196.84;;;15.90;100.00
1616;BME280;801;47.982;7.810;2022-07-11T04:57:05;99207.91;;;15.94;100.00
1616;BME280;801;47.982;7.810;2022-07-11T04:59:31;99197.00;;;16.04;100.00
1616;BME280;801;47.982;7.810;2022-07-11T05:01:58;99204.03;;;16.05;100.00
1616;BME280;801;47.982;7.810;2022-07-11T05:04:24;99204.84;;;16.11;100.00
1616;BME280;801;47.982;7.810;2022-07-11T05:06:52;99204.78;;;16.16;100.00
1616;BME280;801;47.982;7.810;2022-07-11T05:09:19;99200.41;;;16.20;100.00
1616;BME280;801;47.982;7.810;2022-07-11T05:11:45;99205.34;;;16.13;100.00
1616;BME280;801;47.982;7.810;2022-07-11T05:14:12;99207.22;;;16.17;100.00
1616;BME280;801;47.982;7.810;2022-07-11T05:16:38;99199.34;;;16.16;100.00
1616;BME280;801;47.982;7.810;2022-07-11T05:19:05;99206.31;;;16.27;100.00
1616;BME280;801;47.982;7.810;2022-07-11T05:21:31;99199.78;;;16.33;100.00
1616;BME280;801;47.982;7.810;2022-07-11T05:23:59;99202.94;;;16.46;100.00
1616;BME280;801;47.982;7.810;2022-07-11T05:26:26;99205.34;;;16.47;100.00
1616;BME280;801;47.982;7.810;2022-07-11T05:28:52;99207.75;;;16.54;100.00
1616;BME280;801;47.982;7.810;2022-07-11T05:31:19;99209.38;;;16.55;100.00
1616;BME280;801;47.982;7.810;2022-07-11T05:33:45;99209.91;;;16.57;100.00
1616;BME280;801;47.982;7.810;2022-07-11T05:36:12;99205.16;;;16.73;100.00
1616;BME280;801;47.982;7.810;2022-07-11T05:38:39;99208.47;;;16.65;100.00
1616;BME280;801;47.982;7.810;2022-07-11T05:41:07;99210.53;;;16.78;100.00
1616;BME280;801;47.982;7.810;2022-07-11T05:43:33;99202.66;;;16.82;100.00
1616;BME280;801;47.982;7.810;2022-07-11T05:46:04;99204.50;;;16.86;100.00
1616;BME280;801;47.982;7.810;2022-07-11T05:48:30;99196.59;;;16.90;100.00
1616;BME280;801;47.982;7.810;2022-07-11T05:50:57;99201.50;;;16.88;100.00
1616;BME280;801;47.982;7.810;2022-07-11T05:53:23;99196.25;;;16.96;100.00
1616;BME280;801;47.982;7.810;2022-07-11T05:55:50;99198.09;;;17.01;100.00
1616;BME280;801;47.982;7.810;2022-07-11T05:58:17;99200.78;;;17.06;100.00
1616;BME280;801;47.982;7.810;2022-07-11T06:00:44;99206.56;;;17.24;100.00
1616;BME280;801;47.982;7.810;2022-07-11T06:03:10;99205.53;;;17.19;100.00
1616;BME280;801;47.982;7.810;2022-07-11T06:05:37;99199.31;;;17.14;100.00
1616;BME280;801;47.982;7.810;2022-07-11T06:08:04;99194.88;;;17.23;100.00
1616;BME280;801;47.982;7.810;2022-07-11T06:10:48;99199.59;;;17.36;100.00
1616;BME280;801;47.982;7.810;2022-07-11T06:13:18;99196.50;;;17.48;100.00
1616;BME280;801;47.982;7.810;2022-07-11T06:15:45;99199.56;;;17.41;100.00
1616;BME280;801;47.982;7.810;2022-07-11T06:18:12;99204.56;;;17.53;100.00
1616;BME280;801;47.982;7.810;2022-07-11T06:20:38;99205.09;;;17.55;100.00
1616;BME280;801;47.982;7.810;2022-07-11T06:23:05;99203.84;;;17.67;100.00
1616;BME280;801;47.982;7.810;2022-07-11T06:25:32;99206.25;;;17.68;100.00
1616;BME280;801;47.982;7.810;2022-07-11T06:27:59;99193.78;;;17.67;100.00
1616;BME280;801;47.982;7.810;2022-07-11T06:30:27;99205.34;;;17.78;100.00
1616;BME280;801;47.982;7.810;2022-07-11T06:32:54;99206.91;;;17.84;100.00
1616;BME280;801;47.982;7.810;2022-07-11T06:35:20;99206.25;;;17.92;100.00
1616;BME280;801;47.982;7.810;2022-07-11T06:37:47;99208.81;;;17.83;100.00
1616;BME280;801;47.982;7.810;2022-07-11T06:40:14;99208.31;;;18.00;100.00
1616;BME280;801;47.982;7.810;2022-07-11T06:42:42;99204.94;;;18.09;100.00
1616;BME280;801;47.982;7.810;2022-07-11T06:45:10;99200.97;;;17.82;100.00
1616;BME280;801;47.982;7.810;2022-07-11T06:47:38;99201.41;;;17.89;100.00
1616;BME280;801;47.982;7.810;2022-07-11T06:50:05;99206.19;;;17.97;100.00
1616;BME280;801;47.982;7.810;2022-07-11T06:52:32;99192.34;;;18.13;100.00
1616;BME280;801;47.982;7.810;2022-07-11T06:54:58;99201.59;;;18.31;100.00
1616;BME280;801;47.982;7.810;2022-07-11T06:57:25;99200.25;;;18.28;100.00
1616;BME280;801;47.982;7.810;2022-07-11T06:59:51;99205.56;;;18.38;100.00
1616;BME280;801;47.982;7.810;2022-07-11T07:02:18;99209.88;;;18.39;100.00
1616;BME280;801;47.982;7.810;2022-07-11T07:04:46;99199.84;;;18.21;100.00
1616;BME280;801;47.982;7.810;2022-07-11T07:07:12;99206.59;;;18.42;100.00
1616;BME280;801;47.982;7.810;2022-07-11T07:09:39;99193.75;;;18.29;100.00
1616;BME280;801;47.982;7.810;2022-07-11T07:12:06;99201.69;;;18.58;100.00
1616;BME280;801;47.982;7.810;2022-07-11T07:14:33;99200.28;;;18.61;100.00
1616;BME280;801;47.982;7.810;2022-07-11T07:16:59;99197.28;;;18.62;100.00
1616;BME280;801;47.982;7.810;2022-07-11T07:19:26;99200.03;;;18.76;100.00
1616;BME280;801;47.982;7.810;2022-07-11T07:21:54;99196.66;;;18.84;100.00
1616;BME280;801;47.982;7.810;2022-07-11T07:24:20;99204.31;;;18.96;100.00
1616;BME280;801;47.982;7.810;2022-07-11T07:26:47;99196.31;;;18.86;100.00
1616;BME280;801;47.982;7.810;2022-07-11T07:29:13;99198.16;;;18.91;100.00
1616;BME280;801;47.982;7.810;2022-07-11T07:31:40;99197.88;;;19.06;100.00
1616;BME280;801;47.982;7.810;2022-07-11T07:34:06;99197.16;;;19.14;98.61
1616;BME280;801;47.982;7.810;2022-07-11T07:36:34;99202.63;;;19.28;98.25
1616;BME280;801;47.982;7.810;2022-07-11T07:39:02;99205.13;;;19.24;97.29
1616;BME280;801;47.982;7.810;2022-07-11T07:41:29;99199.78;;;19.33;96.15
1616;BME280;801;47.982;7.810;2022-07-11T07:43:55;99201.81;;;19.27;95.18
1616;BME280;801;47.982;7.810;2022-07-11T07:46:22;99197.16;;;19.42;94.61
1616;BME280;801;47.982;7.810;2022-07-11T07:48:48;99192.81;;;19.55;91.39
1616;BME280;801;47.982;7.810;2022-07-11T07:51:15;99193.94;;;19.40;90.85
1616;BME280;801;47.982;7.810;2022-07-11T07:53:41;99195.31;;;19.51;91.85
1616;BME280;801;47.982;7.810;2022-07-11T07:56:09;99194.53;;;19.78;88.98
1616;BME280;801;47.982;7.810;2022-07-11T07:58:36;99183.19;;;19.85;84.15
1616;BME280;801;47.982;7.810;2022-07-11T08:01:03;99191.72;;;20.06;86.21
1616;BME280;801;47.982;7.810;2022-07-11T08:03:47;99185.69;;;20.18;86.44
1616;BME280;801;47.982;7.810;2022-07-11T08:06:14;99194.69;;;20.18;84.37
1616;BME280;801;47.982;7.810;2022-07-11T08:08:40;99186.25;;;20.28;82.08
1616;BME280;801;47.982;7.810;2022-07-11T08:11:07;99190.66;;;20.38;80.12
1616;BME280;801;47.982;7.810;2022-07-11T08:13:35;99189.41;;;20.44;80.86
1616;BME280;801;47.982;7.810;2022-07-11T08:16:03;99179.06;;;20.55;78.08
1616;BME280;801;47.982;7.810;2022-07-11T08:18:29;99179.50;;;20.71;77.45
1616;BME280;801;47.982;7.810;2022-07-11T08:20:56;99179.97;;;21.04;73.04
1616;BME280;801;47.982;7.810;2022-07-11T08:23:22;99179.63;;;20.66;74.72
1616;BME280;801;47.982;7.810;2022-07-11T08:25:49;99179.44;;;20.62;74.67
1616;BME280;801;47.982;7.810;2022-07-11T08:28:15;99181.06;;;20.63;75.40
1616;BME280;801;47.982;7.810;2022-07-11T08:30:43;99173.41;;;20.74;76.26
1616;BME280;801;47.982;7.810;2022-07-11T08:33:10;99173.59;;;20.78;77.07
1616;BME280;801;47.982;7.810;2022-07-11T08:35:37;99175.53;;;20.77;76.25
1616;BME280;801;47.982;7.810;2022-07-11T08:38:03;99176.09;;;21.05;75.25
1616;BME280;801;47.982;7.810;2022-07-11T08:40:30;99173.59;;;21.18;73.77
1616;BME280;801;47.982;7.810;2022-07-11T08:42:57;99166.03;;;21.14;73.16
1616;BME280;801;47.982;7.810;2022-07-11T08:45:29;99164.94;;;21.24;71.71
1616;BME280;801;47.982;7.810;2022-07-11T08:47:58;99162.00;;;21.78;71.43
1616;BME280;801;47.982;7.810;2022-07-11T08:50:26;99157.50;;;21.73;67.80
1616;BME280;801;47.982;7.810;2022-07-11T08:52:53;99153.66;;;21.66;69.57
1616;BME280;801;47.982;7.810;2022-07-11T08:55:20;99161.34;;;21.46;68.13
1616;BME280;801;47.982;7.810;2022-07-11T08:57:48;99156.66;;;21.47;69.94
1616;BME280;801;47.982;7.810;2022-07-11T09:00:15;99163.63;;;21.88;71.07
1616;BME280;801;47.982;7.810;2022-07-11T09:02:42;99159.09;;;21.83;73.49
1616;BME280;801;47.982;7.810;2022-07-11T09:05:11;99153.97;;;21.64;73.94
1616;BME280;801;47.982;7.810;2022-07-11T09:07:42;99153.97;;;21.82;72.67
1616;BME280;801;47.982;7.810;2022-07-11T09:10:10;99158.94;;;22.06;70.71
1616;BME280;801;47.982;7.810;2022-07-11T09:12:38;99159.13;;;22.01;71.49
1616;BME280;801;47.982;7.810;2022-07-11T09:15:31;99145.59;;;22.04;70.90
1616;BME280;801;47.982;7.810;2022-07-11T09:17:57;99146.56;;;22.08;70.44
1616;BME280;801;47.982;7.810;2022-07-11T09:20:25;99145.75;;;22.08;72.03
1616;BME280;801;47.982;7.810;2022-07-11T09:23:19;99132.56;;;22.01;72.17
1616;BME280;801;47.982;7.810;2022-07-11T09:26:04;99141.06;;;22.43;70.20
1616;BME280;801;47.982;7.810;2022-07-11T09:28:30;99145.19;;;22.67;68.19
1616;BME280;801;47.982;7.810;2022-07-11T09:30:57;99142.97;;;22.51;69.37
1616;BME280;801;47.982;7.810;2022-07-11T09:33:23;99134.97;;;22.37;69.82
1616;BME280;801;47.982;7.810;2022-07-11T09:35:53;99143.09;;;22.64;68.98
1616;BME280;801;47.982;7.810;2022-07-11T09:38:20;99140.69;;;22.71;69.58
1616;BME280;801;47.982;7.810;2022-07-11T09:40:48;99137.97;;;22.62;64.95
1616;BME280;801;47.982;7.810;2022-07-11T09:43:23;99140.59;;;22.88;62.62
1616;BME280;801;47.982;7.810;2022-07-11T09:45:50;99130.91;;;22.99;63.59
1616;BME280;801;47.982;7.810;2022-07-11T09:48:17;99136.38;;;23.59;62.12
1616;BME280;801;47.982;7.810;2022-07-11T09:50:56;99136.75;;;23.49;59.58
1616;BME280;801;47.982;7.810;2022-07-11T09:53:25;99127.59;;;23.15;60.86
1616;BME280;801;47.982;7.810;2022-07-11T09:55:52;99134.50;;;23.21;61.54
1616;BME280;801;47.982;7.810;2022-07-11T09:58:19;99124.47;;;22.95;63.40
1616;BME280;801;47.982;7.810;2022-07-11T10:00:47;99131.19;;;23.36;64.73
1616;BME280;801;47.982;7.810;2022-07-11T10:03:13;99121.72;;;23.04;66.38
1616;BME280;801;47.982;7.810;2022-07-11T10:05:40;99131.25;;;22.89;67.61
1616;BME280;801;47.982;7.810;2022-07-11T10:08:07;99134.97;;;23.23;68.03
1616;BME280;801;47.982;7.810;2022-07-11T10:10:34;99140.59;;;22.88;68.55
1616;BME280;801;47.982;7.810;2022-07-11T10:13:01;99129.88;;;23.13;68.76
1616;BME280;801;47.982;7.810;2022-07-11T10:15:29;99127.50;;;23.32;68.16
1616;BME280;801;47.982;7.810;2022-07-11T10:18:05;99135.19;;;23.39;67.26
1616;BME280;801;47.982;7.810;2022-07-11T10:20:39;99125.66;;;23.45;68.36
1616;BME280;801;47.982;7.810;2022-07-11T10:23:17;99126.47;;;23.67;69.72
1616;BME280;801;47.982;7.810;2022-07-11T10:25:56;99125.66;;;23.66;67.12
1616;BME280;801;47.982;7.810;2022-07-11T10:28:27;99131.72;;;23.80;66.83
1616;BME280;801;47.982;7.810;2022-07-11T10:30:56;99125.94;;;23.73;66.99
1616;BME280;801;47.982;7.810;2022-07-11T10:33:26;99126.59;;;23.70;68.65
1616;BME280;801;47.982;7.810;2022-07-11T10:35:52;99136.22;;;23.55;68.04
1616;BME280;801;47.982;7.810;2022-07-11T10:38:21;99138.75;;;23.39;67.73
1616;BME280;801;47.982;7.810;2022-07-11T10:40:50;99128.44;;;23.36;68.31
1616;BME280;801;47.982;7.810;2022-07-11T10:43:35;99131.66;;;23.38;69.74
1616;BME280;801;47.982;7.810;2022-07-11T10:46:04;99124.78;;;23.74;69.30
1616;BME280;801;47.982;7.810;2022-07-11T10:48:33;99122.84;;;23.54;68.80
1616;BME280;801;47.982;7.810;2022-07-11T10:51:16;99121.16;;;23.61;68.48
1616;BME280;801;47.982;7.810;2022-07-11T10:53:49;99127.00;;;23.60;69.09
1616;BME280;801;47.982;7.810;2022-07-11T10:56:39;99128.09;;;23.89;67.64
1616;BME280;801;47.982;7.810;2022-07-11T10:59:13;99120.47;;;23.94;67.61
1616;BME280;801;47.982;7.810;2022-07-11T11:02:02;99114.44;;;24.01;67.42
1616;BME280;801;47.982;7.810;2022-07-11T11:04:49;99114.59;;;24.17;68.37
1616;BME280;801;47.982;7.810;2022-07-11T11:07:38;99119.47;;;24.11;65.92
1616;BME280;801;47.982;7.810;2022-07-11T11:13:12;99113.00;;;24.16;67.91
1616;BME280;801;47.982;7.810;2022-07-11T11:15:42;99114.09;;;24.36;67.61
1616;BME280;801;47.982;7.810;2022-07-11T11:18:31;99103.41;;;24.22;67.58
1616;BME280;801;47.982;7.810;2022-07-11T11:21:13;99106.16;;;24.80;65.69
1616;BME280;801;47.982;7.810;2022-07-11T11:23:41;99093.50;;;24.42;67.77
1616;BME280;801;47.982;7.810;2022-07-11T11:26:11;99101.56;;;24.59;67.18
1616;BME280;801;47.982;7.810;2022-07-11T11:28:54;99104.91;;;24.65;66.91
1616;BME280;801;47.982;7.810;2022-07-11T11:31:21;99097.72;;;25.10;65.47
1616;BME280;801;47.982;7.810;2022-07-11T11:33:48;99098.41;;;24.94;66.00
1616;BME280;801;47.982;7.810;2022-07-11T11:36:16;99094.50;;;24.83;65.81
1616;BME280;801;47.982;7.810;2022-07-11T11:38:44;99092.63;;;24.62;65.89
1616;BME280;801;47.982;7.810;2022-07-11T11:41:20;99098.84;;;24.72;66.90
1616;BME280;801;47.982;7.810;2022-07-11T11:43:48;99090.16;;;24.70;66.50
1616;BME280;801;47.982;7.810;2022-07-11T11:46:15;99091.63;;;24.67;67.16
1616;BME280;801;47.982;7.810;2022-07-11T11:48:42;99088.16;;;24.58;67.84
1616;BME280;801;47.982;7.810;2022-07-11T11:51:11;99091.97;;;24.90;66.51
1616;BME280;801;47.982;7.810;2022-07-11T11:53:39;99092.66;;;24.75;66.66
1616;BME280;801;47.982;7.810;2022-07-11T11:56:16;99090.47;;;24.80;66.25
1616;BME280;801;47.982;7.810;2022-07-11T11:58:46;99087.84;;;24.84;66.17
1616;BME280;801;47.982;7.810;2022-07-11T12:01:14;99088.50;;;25.18;64.61
1616;BME280;801;47.982;7.810;2022-07-11T12:03:48;99079.78;;;25.40;64.20
1616;BME280;801;47.982;7.810;2022-07-11T12:06:14;99083.84;;;25.71;63.16
1616;BME280;801;47.982;7.810;2022-07-11T12:08:41;99082.41;;;25.89;62.14
1616;BME280;801;47.982;7.810;2022-07-11T12:11:11;99072.06;;;25.99;62.35
1616;BME280;801;47.982;7.810;2022-07-11T12:13:40;99076.22;;;25.80;62.63
1616;BME280;801;47.982;7.810;2022-07-11T12:16:12;99071.78;;;25.76;62.83
1616;BME280;801;47.982;7.810;2022-07-11T12:18:56;99073.34;;;25.61;65.27
1616;BME280;801;47.982;7.810;2022-07-11T12:21:22;99063.41;;;25.44;64.69
1616;BME280;801;47.982;7.810;2022-07-11T12:23:49;99061.06;;;25.58;64.83
1616;BME280;801;47.982;7.810;2022-07-11T12:26:16;99073.53;;;25.68;64.13
1616;BME280;801;47.982;7.810;2022-07-11T12:29:03;99064.75;;;25.91;63.67
1616;BME280;801;47.982;7.810;2022-07-11T12:31:46;99058.81;;;26.33;62.80
1616;BME280;801;47.982;7.810;2022-07-11T12:34:13;99058.53;;;26.22;61.85
1616;BME280;801;47.982;7.810;2022-07-11T12:36:40;99048.00;;;26.12;61.30
1616;BME280;801;47.982;7.810;2022-07-11T12:39:07;99054.69;;;26.26;62.06
1616;BME280;801;47.982;7.810;2022-07-11T12:41:34;99052.75;;;26.27;61.10
1616;BME280;801;47.982;7.810;2022-07-11T12:44:01;99052.34;;;26.73;59.75
1616;BME280;801;47.982;7.810;2022-07-11T12:46:46;99054.66;;;27.06;59.07
1616;BME280;801;47.982;7.810;2022-07-11T12:49:15;99044.16;;;27.27;57.03
1616;BME280;801;47.982;7.810;2022-07-11T12:51:44;99052.56;;;26.99;57.09
1616;BME280;801;47.982;7.810;2022-07-11T12:54:12;99043.03;;;26.97;58.17
1616;BME280;801;47.982;7.810;2022-07-11T12:56:39;99041.66;;;26.71;57.82
1616;BME280;801;47.982;7.810;2022-07-11T12:59:06;99041.72;;;26.43;59.01
1616;BME280;801;47.982;7.810;2022-07-11T13:01:33;99037.41;;;26.74;59.91
1616;BME280;801;47.982;7.810;2022-07-11T13:04:01;99037.75;;;26.72;59.71
1616;BME280;801;47.982;7.810;2022-07-11T13:06:27;99025.78;;;27.00;58.95
1616;BME280;801;47.982;7.810;2022-07-11T13:09:13;99022.44;;;27.26;58.88
1616;BME280;801;47.982;7.810;2022-07-11T13:11:41;99034.28;;;27.26;57.21
1616;BME280;801;47.982;7.810;2022-07-11T13:14:07;99033.13;;;27.11;57.33
1616;BME280;801;47.982;7.810;2022-07-11T13:16:54;99034.56;;;27.21;56.96
1616;BME280;801;47.982;7.810;2022-07-11T13:19:22;99036.19;;;27.06;58.09
1616;BME280;801;47.982;7.810;2022-07-11T13:21:48;99035.56;;;27.13;57.06
1616;BME280;801;47.982;7.810;2022-07-11T13:24:15;99033.34;;;27.38;56.96
1616;BME280;801;47.982;7.810;2022-07-11T13:26:41;99044.69;;;27.33;56.88
1616;BME280;801;47.982;7.810;2022-07-11T13:29:08;99039.88;;;27.30;56.54
1616;BME280;801;47.982;7.810;2022-07-11T13:31:34;99040.97;;;27.45;56.44
1616;BME280;801;47.982;7.810;2022-07-11T13:34:01;99045.72;;;27.44;56.46
1616;BME280;801;47.982;7.810;2022-07-11T13:36:29;99043.38;;;27.46;56.11
1616;BME280;801;47.982;7.810;2022-07-11T13:38:55;99044.03;;;27.40;56.00
1616;BME280;801;47.982;7.810;2022-07-11T13:41:22;99047.22;;;27.61;55.91
1616;BME280;801;47.982;7.810;2022-07-11T13:43:49;99050.06;;;27.45;54.55
1616;BME280;801;47.982;7.810;2022-07-11T13:46:15;99042.75;;;27.18;55.73
1616;BME280;801;47.982;7.810;2022-07-11T13:48:44;99044.03;;;27.79;55.00
1616;BME280;801;47.982;7.810;2022-07-11T13:51:11;99045.09;;;28.13;53.68
1616;BME280;801;47.982;7.810;2022-07-11T13:53:39;99039.75;;;28.24;52.57
1616;BME280;801;47.982;7.810;2022-07-11T13:56:06;99042.38;;;27.93;52.95
1616;BME280;801;47.982;7.810;2022-07-11T13:58:33;99024.16;;;27.89;53.50
1616;BME280;801;47.982;7.810;2022-07-11T14:00:59;99031.97;;;27.67;53.69
1616;BME280;801;47.982;7.810;2022-07-11T14:03:26;99034.50;;;27.76;54.06
1616;BME280;801;47.982;7.810;2022-07-11T14:05:53;99046.34;;;28.15;53.14
1616;BME280;801;47.982;7.810;2022-07-11T14:08:21;99033.22;;;27.89;53.31
1616;BME280;801;47.982;7.810;2022-07-11T14:10:49;99024.97;;;28.35;53.72
1616;BME280;801;47.982;7.810;2022-07-11T14:13:15;99022.19;;;29.08;52.53
1616;BME280;801;47.982;7.810;2022-07-11T14:15:42;99026.22;;;29.75;50.39
1616;BME280;801;47.982;7.810;2022-07-11T14:18:08;99023.47;;;29.14;49.74
1616;BME280;801;47.982;7.810;2022-07-11T14:20:35;99016.00;;;28.92;49.63
1616;BME280;801;47.982;7.810;2022-07-11T14:23:01;99012.38;;;28.88;50.40
1616;BME280;801;47.982;7.810;2022-07-11T14:25:28;99009.00;;;29.58;49.00
1616;BME280;801;47.982;7.810;2022-07-11T14:27:56;99013.09;;;29.38;48.81
1616;BME280;801;47.982;7.810;2022-07-11T14:30:23;98998.66;;;28.95;49.57
1616;BME280;801;47.982;7.810;2022-07-11T14:32:49;98991.22;;;28.99;49.63
1616;BME280;801;47.982;7.810;2022-07-11T14:35:17;99003.91;;;29.30;49.16
1616;BME280;801;47.982;7.810;2022-07-11T14:37:43;99001.13;;;29.61;48.75
1616;BME280;801;47.982;7.810;2022-07-11T14:40:10;98992.78;;;29.27;48.33
1616;BME280;801;47.982;7.810;2022-07-11T14:42:37;98984.72;;;28.61;50.40
1616;BME280;801;47.982;7.810;2022-07-11T14:45:06;98986.53;;;29.33;49.26
1616;BME280;801;47.982;7.810;2022-07-11T14:47:33;98985.59;;;29.22;48.67
1616;BME280;801;47.982;7.810;2022-07-11T14:49:59;98977.91;;;29.08;48.44
1616;BME280;801;47.982;7.810;2022-07-11T14:52:26;98980.56;;;29.01;49.38
1616;BME280;801;47.982;7.810;2022-07-11T14:54:52;98983.97;;;29.17;48.91
1616;BME280;801;47.982;7.810;2022-07-11T14:57:19;98978.59;;;28.71;49.09
1616;BME280;801;47.982;7.810;2022-07-11T14:59:46;98979.56;;;28.86;49.26
1616;BME280;801;47.982;7.810;2022-07-11T15:02:14;98972.91;;;28.91;49.18
1616;BME280;801;47.982;7.810;2022-07-11T15:04:41;98977.88;;;28.78;49.30
1616;BME280;801;47.982;7.810;2022-07-11T15:07:07;98979.28;;;28.95;49.74
1616;BME280;801;47.982;7.810;2022-07-11T15:09:51;98979.03;;;29.68;48.05
1616;BME280;801;47.982;7.810;2022-07-11T15:12:50;98980.06;;;29.22;48.57
1616;BME280;801;47.982;7.810;2022-07-11T15:15:17;98978.13;;;28.96;49.09
1616;BME280;801;47.982;7.810;2022-07-11T15:17:44;98987.66;;;29.59;48.67
1616;BME280;801;47.982;7.810;2022-07-11T15:20:11;98983.47;;;29.72;47.39
1616;BME280;801;47.982;7.810;2022-07-11T15:22:37;98981.81;;;29.34;47.56
1616;BME280;801;47.982;7.810;2022-07-11T15:25:05;98979.06;;;29.34;48.08
1616;BME280;801;47.982;7.810;2022-07-11T15:27:31;98984.88;;;29.59;47.94
1616;BME280;801;47.982;7.810;2022-07-11T15:29:58;98980.78;;;29.79;46.51
1616;BME280;801;47.982;7.810;2022-07-11T15:32:25;98984.06;;;29.92;47.18
1616;BME280;801;47.982;7.810;2022-07-11T15:34:54;98987.47;;;29.45;47.41
1616;BME280;801;47.982;7.810;2022-07-11T15:37:20;98983.06;;;29.40;47.97
1616;BME280;801;47.982;7.810;2022-07-11T15:39:46;98987.44;;;29.41;47.80
1616;BME280;801;47.982;7.810;2022-07-11T15:42:13;98974.88;;;29.47;47.77
1616;BME280;801;47.982;7.810;2022-07-11T15:44:39;98978.41;;;30.23;46.64
1616;BME280;801;47.982;7.810;2022-07-11T15:47:06;98989.00;;;30.10;46.45
1616;BME280;801;47.982;7.810;2022-07-11T15:49:32;98976.94;;;29.57;47.39
1616;BME280;801;47.982;7.810;2022-07-11T15:52:00;98982.41;;;29.50;47.72
1616;BME280;801;47.982;7.810;2022-07-11T15:54:27;98983.31;;;29.62;46.74
1616;BME280;801;47.982;7.810;2022-07-11T15:56:53;98974.97;;;30.33;45.90
1616;BME280;801;47.982;7.810;2022-07-11T15:59:21;98978.69;;;30.10;45.49
1616;BME280;801;47.982;7.810;2022-07-11T16:01:48;98980.31;;;30.15;45.98
1616;BME280;801;47.982;7.810;2022-07-11T16:04:14;98978.34;;;30.64;44.53
1616;BME280;801;47.982;7.810;2022-07-11T16:06:41;98988.22;;;30.61;44.39
1616;BME280;801;47.982;7.810;2022-07-11T16:09:09;98983.84;;;30.56;44.85
1616;BME280;801;47.982;7.810;2022-07-11T16:11:35;98987.28;;;29.98;45.81